UKDE/OZH METAR and TAF weather

Enter ICAO airport designator
Station Type Date Time Source
UKDE METAR 2022/01/26 13:30 UTC NOAA

UKDE 261330Z 21003MPS 9999 -SN OVC014 M06/M08 Q1016 NOSIG


Station Type Date Time Source
UKDE Decoded METAR 2022/01/26 13:30 UTC NOAA

Zaporizhzhia / Mokraya, Ukraine (UKDE) 47-52-02N 035-18-59E
Jan 26, 2022 - 08:30 AM EST / 2022.01.26 1330 UTC
Wind: from the SSW (210 degrees) at 7 MPH (6 KT):0
Visibility: greater than 7 mile(s):0
Sky conditions: overcast
Weather: light snow
Temperature: 21 F (-6 C)
Windchill: 12 F (-11 C):1
Dew Point: 17 F (-8 C)
Relative Humidity: 85%
Pressure (altimeter): 30.00 in. Hg (1016 hPa)
ob: UKDE 261330Z 21003MPS 9999 -SN OVC014 M06/M08 Q1016 NOSIG
cycle: 13

Station Type Date Time Source
UKDE TAF 2022/01/11 00:39 UTC NOAA

TAF
AMD TAF
AMD UKDE 110036Z 1100/1112 35007MPS 2000 BR OVC003 TXM00/1100Z TNM02/1106Z
TEMPO 1100/1106 0700 -FZDZ FZFG VV001
TEMPO 1106/1109 01008G13MPS

Example: see airport list